Time;durP1;ratioP1;P1;durP2;ratioP2;P2;SDS_P1;SDS_P2;PMS_P1;PMS_P2;Temp;Humidity;BMP_temperature;BMP_pressure;BME280_temperature;BME280_humidity;BME280_pressure;Samples;Min_cycle;Max_cycle;Signal;HPM_P1;HPM_P2
2023/12/18 00:02:06;;;;;;;10.63;6.90;;;5.80;99.90;;;;;;5079211;28;20033;-82
2023/12/18 00:04:32;;;;;;;11.77;7.00;;;5.90;99.90;;;;;;5036646;28;20032;-82
2023/12/18 00:06:57;;;;;;;9.82;5.72;;;5.90;99.90;;;;;;5048762;28;20029;-82
2023/12/18 00:09:23;;;;;;;11.63;6.18;;;5.80;99.90;;;;;;5048613;28;20013;-82
2023/12/18 00:11:49;;;;;;;10.05;5.10;;;5.90;99.90;;;;;;5046501;28;20043;-82
2023/12/18 00:14:14;;;;;;;10.27;5.72;;;5.90;99.90;;;;;;5045832;28;20025;-82
2023/12/18 00:16:40;;;;;;;9.52;5.90;;;5.90;99.90;;;;;;5047596;28;20049;-83
2023/12/18 00:19:06;;;;;;;19.92;10.77;;;5.90;99.90;;;;;;5044317;28;20094;-82
2023/12/18 00:21:32;;;;;;;12.45;8.00;;;5.90;99.90;;;;;;5047646;28;20025;-82
2023/12/18 00:23:57;;;;;;;15.52;8.52;;;5.90;99.90;;;;;;5030899;28;20047;-83
2023/12/18 00:26:23;;;;;;;14.98;8.32;;;5.90;99.90;;;;;;5027451;28;20025;-83
2023/12/18 00:28:49;;;;;;;12.20;7.22;;;5.90;99.90;;;;;;5047552;28;20045;-83
2023/12/18 00:31:15;;;;;;;11.80;7.05;;;5.90;99.90;;;;;;5045955;28;20097;-84
2023/12/18 00:33:41;;;;;;;15.02;7.35;;;5.90;99.90;;;;;;5049261;28;20493;-82
2023/12/18 00:36:08;;;;;;;13.43;6.80;;;5.90;99.90;;;;;;5048099;28;20025;-83
2023/12/18 00:38:34;;;;;;;14.52;7.65;;;5.90;99.90;;;;;;5047158;28;20028;-81
2023/12/18 00:41:00;;;;;;;14.15;7.95;;;5.90;99.90;;;;;;5027325;28;20027;-83
2023/12/18 00:43:25;;;;;;;16.48;7.75;;;6.00;99.90;;;;;;5047368;28;20109;-82
2023/12/18 00:45:51;;;;;;;11.57;6.78;;;6.00;99.90;;;;;;5047448;28;20029;-81
2023/12/18 00:48:16;;;;;;;15.95;8.45;;;6.00;99.90;;;;;;5048053;28;20025;-82
2023/12/18 00:50:42;;;;;;;12.63;7.53;;;6.00;99.90;;;;;;5035797;28;20378;-83
2023/12/18 00:53:09;;;;;;;13.52;6.50;;;6.00;99.90;;;;;;5065564;28;20021;-83
2023/12/18 00:55:34;;;;;;;14.18;7.47;;;6.10;99.90;;;;;;5048695;28;20029;-81
2023/12/18 00:58:00;;;;;;;10.38;6.95;;;6.00;99.90;;;;;;5047630;28;20110;-81
2023/12/18 01:00:26;;;;;;;14.00;8.18;;;6.00;99.90;;;;;;5063754;28;20029;-81
2023/12/18 01:02:51;;;;;;;13.45;7.40;;;6.10;99.90;;;;;;5047580;28;20509;-82
2023/12/18 01:05:17;;;;;;;11.95;7.47;;;6.10;99.90;;;;;;5037218;28;20486;-82
2023/12/18 01:07:43;;;;;;;8.57;6.10;;;6.10;99.90;;;;;;5048550;28;20123;-82
2023/12/18 01:10:09;;;;;;;13.90;8.07;;;6.10;99.90;;;;;;5031946;28;20028;-82
2023/12/18 01:12:35;;;;;;;12.45;7.45;;;6.10;99.90;;;;;;5038081;28;20040;-82
2023/12/18 01:15:01;;;;;;;12.57;5.95;;;6.10;99.90;;;;;;5063666;28;20025;-82
2023/12/18 01:17:26;;;;;;;8.82;4.88;;;6.10;99.90;;;;;;5030660;28;20052;-81
2023/12/18 01:19:52;;;;;;;7.45;4.63;;;6.10;99.90;;;;;;5031786;28;20014;-82
2023/12/18 01:22:18;;;;;;;10.90;6.15;;;6.10;99.90;;;;;;5043739;28;20481;-82
2023/12/18 01:24:43;;;;;;;11.05;6.18;;;6.10;99.90;;;;;;5048475;28;20047;-82
2023/12/18 01:27:09;;;;;;;11.93;6.38;;;6.10;99.90;;;;;;5037784;28;20047;-82
2023/12/18 01:29:42;;;;;;;16.98;8.55;;;6.20;99.90;;;;;;5026863;28;20025;-83
2023/12/18 01:32:08;;;;;;;14.80;6.43;;;6.20;99.90;;;;;;5046093;28;20028;-82
2023/12/18 01:34:34;;;;;;;11.43;6.68;;;6.20;99.90;;;;;;5048618;28;20029;-82
2023/12/18 01:37:00;;;;;;;11.98;6.93;;;6.20;99.90;;;;;;5027796;28;20025;-83
2023/12/18 01:39:26;;;;;;;11.00;6.78;;;6.20;99.90;;;;;;5034611;28;20070;-82
2023/12/18 01:41:52;;;;;;;14.00;7.43;;;6.10;99.90;;;;;;5045453;28;20032;-82
2023/12/18 01:44:17;;;;;;;11.98;6.93;;;6.20;99.90;;;;;;5027190;28;20032;-84
2023/12/18 01:46:45;;;;;;;9.63;6.15;;;6.20;99.90;;;;;;5046817;28;20033;-83
2023/12/18 01:49:11;;;;;;;8.88;5.85;;;6.10;99.90;;;;;;5079242;28;20037;-82
2023/12/18 01:51:36;;;;;;;10.90;5.50;;;6.10;99.90;;;;;;5036425;28;20040;-83
2023/12/18 01:54:04;;;;;;;12.05;5.85;;;6.20;99.90;;;;;;5042840;28;20026;-85
2023/12/18 01:56:31;;;;;;;11.25;6.45;;;6.20;99.90;;;;;;5042725;28;20033;-82
2023/12/18 01:58:59;;;;;;;10.98;6.47;;;6.20;99.90;;;;;;5045592;28;20389;-82
2023/12/18 02:01:26;;;;;;;13.30;6.55;;;6.20;99.90;;;;;;5046779;28;20036;-81
2023/12/18 02:03:53;;;;;;;10.80;5.97;;;6.20;99.90;;;;;;5049441;28;20481;-82
2023/12/18 02:06:20;;;;;;;8.90;5.45;;;6.20;99.90;;;;;;5046432;28;20481;-83
2023/12/18 02:08:46;;;;;;;12.20;6.22;;;6.20;99.90;;;;;;5077718;28;20029;-82
2023/12/18 02:11:12;;;;;;;5.78;3.72;;;6.20;99.90;;;;;;5082645;28;20033;-82
2023/12/18 02:13:42;;;;;;;10.43;5.22;;;6.30;99.90;;;;;;5039004;28;20682;-83
2023/12/18 02:16:08;;;;;;;8.80;5.25;;;6.20;99.90;;;;;;5050113;28;20025;-82
2023/12/18 02:18:34;;;;;;;13.40;6.60;;;6.20;99.90;;;;;;5049905;28;20036;-83
2023/12/18 02:21:00;;;;;;;10.57;6.70;;;6.20;99.90;;;;;;5049335;28;20043;-82
2023/12/18 02:23:25;;;;;;;8.68;6.50;;;6.20;99.90;;;;;;5064078;28;20033;-82
2023/12/18 02:25:51;;;;;;;14.02;6.72;;;6.20;99.90;;;;;;5050719;28;20036;-82
2023/12/18 02:28:17;;;;;;;9.15;5.85;;;6.20;99.90;;;;;;5040637;28;20064;-81
2023/12/18 02:30:44;;;;;;;10.73;6.00;;;6.20;99.90;;;;;;5051328;28;20102;-84
2023/12/18 02:33:09;;;;;;;10.70;6.60;;;6.20;99.90;;;;;;5048726;28;20026;-81
2023/12/18 02:35:35;;;;;;;11.63;6.68;;;6.20;99.90;;;;;;5032108;28;20032;-82
2023/12/18 02:38:01;;;;;;;12.07;7.28;;;6.20;99.90;;;;;;5047824;28;20029;-81
2023/12/18 02:40:27;;;;;;;10.27;6.25;;;6.20;99.90;;;;;;5038780;28;20040;-81
2023/12/18 02:42:53;;;;;;;14.93;8.32;;;6.20;99.90;;;;;;5048758;28;20025;-81
2023/12/18 02:45:18;;;;;;;13.43;8.55;;;6.20;99.90;;;;;;5049242;28;20027;-81
2023/12/18 02:47:44;;;;;;;9.32;6.25;;;6.20;99.90;;;;;;5039242;28;20479;-83
2023/12/18 02:50:10;;;;;;;8.90;5.47;;;6.20;99.90;;;;;;5039742;28;20059;-81
2023/12/18 02:52:36;;;;;;;7.63;4.72;;;6.20;99.90;;;;;;5061044;28;20029;-82
2023/12/18 02:55:02;;;;;;;12.25;7.13;;;6.20;99.90;;;;;;5046981;28;20032;-81
2023/12/18 02:57:28;;;;;;;10.52;6.90;;;6.10;99.90;;;;;;5065729;28;20409;-82
2023/12/18 02:59:53;;;;;;;10.52;7.80;;;6.20;99.90;;;;;;5066931;28;20021;-81
2023/12/18 03:02:19;;;;;;;10.55;5.68;;;6.20;99.90;;;;;;5049945;28;20036;-81
2023/12/18 03:04:45;;;;;;;9.38;6.13;;;6.20;99.90;;;;;;5047279;28;20473;-82
2023/12/18 03:07:11;;;;;;;13.30;7.93;;;6.20;99.90;;;;;;5049984;28;20032;-82
2023/12/18 03:09:37;;;;;;;11.82;6.55;;;6.10;99.90;;;;;;5046636;28;20028;-82
2023/12/18 03:12:03;;;;;;;13.95;8.32;;;6.20;99.90;;;;;;5049739;28;20035;-82
2023/12/18 03:14:29;;;;;;;14.23;8.13;;;6.20;99.90;;;;;;5035434;28;20166;-81
2023/12/18 03:16:55;;;;;;;13.50;8.15;;;6.10;99.90;;;;;;5037239;28;20127;-82
2023/12/18 03:19:20;;;;;;;11.13;6.70;;;6.20;99.90;;;;;;5038766;28;20029;-83
2023/12/18 03:21:46;;;;;;;10.52;6.45;;;6.20;99.90;;;;;;5040356;28;20025;-82
2023/12/18 03:24:12;;;;;;;15.05;8.90;;;6.20;99.90;;;;;;5048922;28;20028;-82
2023/12/18 03:26:38;;;;;;;13.20;7.50;;;6.20;99.90;;;;;;5049093;28;20444;-82
2023/12/18 03:29:05;;;;;;;17.13;9.52;;;6.20;99.90;;;;;;5049102;28;20033;-82
2023/12/18 03:31:30;;;;;;;11.63;6.93;;;6.20;99.90;;;;;;5046772;28;20328;-83
2023/12/18 03:33:56;;;;;;;10.52;7.10;;;6.20;99.90;;;;;;5050078;28;20033;-83
2023/12/18 03:36:22;;;;;;;11.15;7.38;;;6.20;99.90;;;;;;5078172;28;20018;-82
2023/12/18 03:38:48;;;;;;;10.35;6.90;;;6.20;99.90;;;;;;5047518;28;20333;-83
2023/12/18 03:41:14;;;;;;;14.32;7.35;;;6.30;99.90;;;;;;5039302;28;20025;-83
2023/12/18 03:43:39;;;;;;;11.13;6.65;;;6.20;99.90;;;;;;5044935;28;20069;-83
2023/12/18 03:46:06;;;;;;;10.27;6.25;;;6.30;99.90;;;;;;5050210;28;20052;-84
2023/12/18 03:48:31;;;;;;;9.30;6.28;;;6.30;99.90;;;;;;5037158;28;20032;-84
2023/12/18 03:50:57;;;;;;;9.90;6.50;;;6.30;99.90;;;;;;5048663;28;20020;-82
2023/12/18 03:53:23;;;;;;;10.63;6.38;;;6.30;99.90;;;;;;5039797;28;20102;-84
2023/12/18 03:55:49;;;;;;;15.80;7.88;;;6.30;99.90;;;;;;5081822;28;20082;-82
2023/12/18 03:58:14;;;;;;;11.45;7.32;;;6.30;99.90;;;;;;5063665;28;20393;-83
2023/12/18 04:00:41;;;;;;;12.05;7.25;;;6.30;99.90;;;;;;5038984;28;20033;-83
2023/12/18 04:03:06;;;;;;;10.25;6.97;;;6.30;99.90;;;;;;5043463;28;20025;-82
2023/12/18 04:05:33;;;;;;;12.43;8.43;;;6.40;99.90;;;;;;5046919;28;20155;-81
2023/12/18 04:07:58;;;;;;;12.32;8.02;;;6.40;99.90;;;;;;5047835;28;20029;-84
2023/12/18 04:10:24;;;;;;;16.77;8.68;;;6.40;99.90;;;;;;5048691;28;20033;-83
2023/12/18 04:12:51;;;;;;;14.05;8.55;;;6.40;99.90;;;;;;5039619;28;20043;-84
2023/12/18 04:15:17;;;;;;;12.63;8.27;;;6.40;99.90;;;;;;5046681;28;20025;-82
2023/12/18 04:17:42;;;;;;;13.90;8.40;;;6.40;99.90;;;;;;5047997;28;20087;-83
2023/12/18 04:20:08;;;;;;;12.85;8.32;;;6.40;99.90;;;;;;5044840;28;20083;-82
2023/12/18 04:22:34;;;;;;;15.30;9.73;;;6.40;99.90;;;;;;5037937;28;20116;-82
2023/12/18 04:25:00;;;;;;;12.63;7.53;;;6.40;99.90;;;;;;5047323;28;20104;-82
2023/12/18 04:27:25;;;;;;;13.40;8.85;;;6.40;99.90;;;;;;5040446;28;20074;-81
2023/12/18 04:29:51;;;;;;;10.88;7.15;;;6.40;99.90;;;;;;5046071;28;20049;-82
2023/12/18 04:32:17;;;;;;;15.85;9.20;;;6.40;99.90;;;;;;5077021;28;20025;-81
2023/12/18 04:34:43;;;;;;;14.70;10.00;;;6.40;99.90;;;;;;5044404;28;20500;-82
2023/12/18 04:37:09;;;;;;;15.63;9.30;;;6.40;99.90;;;;;;5063284;28;20037;-82
2023/12/18 04:39:35;;;;;;;13.25;8.68;;;6.30;99.90;;;;;;5047913;28;20124;-82
2023/12/18 04:42:01;;;;;;;13.32;9.00;;;6.40;99.90;;;;;;5048088;28;20032;-82
2023/12/18 04:44:27;;;;;;;16.05;9.10;;;6.30;99.90;;;;;;5028769;28;20145;-82
2023/12/18 04:46:52;;;;;;;12.48;8.10;;;6.30;99.90;;;;;;5035909;28;20033;-84
2023/12/18 04:49:18;;;;;;;14.85;8.38;;;6.30;99.90;;;;;;5064829;28;20037;-82
2023/12/18 04:51:44;;;;;;;16.42;9.25;;;6.30;99.90;;;;;;5045707;28;20029;-82
2023/12/18 04:54:10;;;;;;;12.90;9.23;;;6.30;99.90;;;;;;5037160;28;20397;-81
2023/12/18 04:56:35;;;;;;;15.73;9.73;;;6.30;99.90;;;;;;5036236;28;20094;-83
2023/12/18 04:59:01;;;;;;;18.60;11.93;;;6.30;99.90;;;;;;5044554;28;20541;-81
2023/12/18 05:01:29;;;;;;;15.70;9.85;;;6.30;99.90;;;;;;5043062;28;20029;-83
2023/12/18 05:03:54;;;;;;;17.35;10.23;;;6.30;99.90;;;;;;5047918;28;20163;-82
2023/12/18 05:06:26;;;;;;;13.02;9.25;;;6.30;99.90;;;;;;5042731;28;20434;-82
2023/12/18 05:08:52;;;;;;;18.67;10.90;;;6.30;99.90;;;;;;5034570;28;20116;-83
2023/12/18 05:11:22;;;;;;;16.98;9.45;;;6.30;99.90;;;;;;5031590;28;20090;-82
2023/12/18 05:13:47;;;;;;;14.30;9.15;;;6.40;99.90;;;;;;5078478;28;20036;-82
2023/12/18 05:16:14;;;;;;;14.77;9.20;;;6.40;99.90;;;;;;5033715;28;20029;-82
2023/12/18 05:18:40;;;;;;;15.20;9.60;;;6.30;99.90;;;;;;5056915;28;20053;-82
2023/12/18 05:21:06;;;;;;;21.77;10.73;;;6.40;99.90;;;;;;5037960;28;20028;-82
2023/12/18 05:23:32;;;;;;;14.40;9.55;;;6.30;99.90;;;;;;5046958;28;20130;-83
2023/12/18 05:25:58;;;;;;;18.48;11.20;;;6.40;99.90;;;;;;5077510;28;20029;-82
2023/12/18 05:28:25;;;;;;;15.23;9.38;;;6.40;99.90;;;;;;5042457;28;20052;-82
2023/12/18 05:30:51;;;;;;;22.23;13.98;;;6.40;99.90;;;;;;5046002;28;20055;-82
2023/12/18 05:33:17;;;;;;;16.35;10.38;;;6.30;99.90;;;;;;5043418;28;20040;-82
2023/12/18 05:35:43;;;;;;;15.57;9.70;;;6.40;99.90;;;;;;5045637;28;20385;-82
2023/12/18 05:38:09;;;;;;;17.05;12.05;;;6.40;99.90;;;;;;5047236;28;20037;-82
2023/12/18 05:40:35;;;;;;;19.88;11.20;;;6.30;99.90;;;;;;5079680;28;20473;-82
2023/12/18 05:43:01;;;;;;;19.88;11.77;;;6.30;99.90;;;;;;5048171;28;20025;-81
2023/12/18 05:45:27;;;;;;;15.60;9.07;;;6.30;99.90;;;;;;5038801;28;20027;-83
2023/12/18 05:47:52;;;;;;;15.85;10.32;;;6.30;99.90;;;;;;5037708;28;20036;-83
2023/12/18 05:50:18;;;;;;;15.23;9.75;;;6.40;99.90;;;;;;5063055;28;20047;-82
2023/12/18 05:52:44;;;;;;;20.67;11.57;;;6.30;99.90;;;;;;5048567;28;20033;-82
2023/12/18 05:55:10;;;;;;;17.33;10.65;;;6.30;99.90;;;;;;5036255;28;20071;-82
2023/12/18 05:57:40;;;;;;;16.73;10.70;;;6.30;99.90;;;;;;5035536;28;20094;-82
2023/12/18 06:00:06;;;;;;;13.93;9.20;;;6.30;99.90;;;;;;5041273;28;20028;-82
2023/12/18 06:02:32;;;;;;;18.40;11.45;;;6.30;99.90;;;;;;5050552;28;20036;-82
2023/12/18 06:04:58;;;;;;;22.25;14.75;;;6.30;99.90;;;;;;5080869;28;20420;-82
2023/12/18 06:07:24;;;;;;;25.77;15.30;;;6.30;99.90;;;;;;5050947;28;20029;-82
2023/12/18 06:09:49;;;;;;;24.95;15.88;;;6.30;99.90;;;;;;5034984;28;20118;-82
2023/12/18 06:12:15;;;;;;;27.42;15.43;;;6.30;99.90;;;;;;5049431;28;20044;-82
2023/12/18 06:14:40;;;;;;;23.55;14.57;;;6.30;99.90;;;;;;5048255;28;20114;-82
2023/12/18 06:17:06;;;;;;;24.55;13.15;;;6.40;99.90;;;;;;5048871;28;20037;-82
2023/12/18 06:19:32;;;;;;;23.23;12.73;;;6.40;99.90;;;;;;5059903;28;20049;-82
2023/12/18 06:21:57;;;;;;;20.38;13.20;;;6.40;99.90;;;;;;5057860;28;20029;-82
2023/12/18 06:24:23;;;;;;;22.80;14.82;;;6.40;99.90;;;;;;5038346;28;20048;-82
2023/12/18 06:26:49;;;;;;;26.52;15.90;;;6.40;99.90;;;;;;5029928;28;20466;-80
2023/12/18 06:29:15;;;;;;;24.90;16.23;;;6.40;99.90;;;;;;5029327;28;20156;-81
2023/12/18 06:31:40;;;;;;;17.25;11.85;;;6.40;99.90;;;;;;5053487;28;20060;-81
2023/12/18 06:34:06;;;;;;;23.98;13.68;;;6.40;99.90;;;;;;5061803;28;20328;-80
2023/12/18 06:36:32;;;;;;;21.27;14.23;;;6.40;99.90;;;;;;5047596;28;20021;-81
2023/12/18 06:38:57;;;;;;;18.70;12.98;;;6.40;99.90;;;;;;5050073;28;20422;-81
2023/12/18 06:41:23;;;;;;;27.23;16.25;;;6.40;99.90;;;;;;5042639;28;20024;-82
2023/12/18 06:43:49;;;;;;;29.45;15.65;;;6.40;99.90;;;;;;5049341;28;20067;-81
2023/12/18 06:46:14;;;;;;;25.75;14.00;;;6.40;99.90;;;;;;5046175;28;20061;-82
2023/12/18 06:48:41;;;;;;;22.15;13.15;;;6.40;99.90;;;;;;5050052;28;20117;-82
2023/12/18 06:51:09;;;;;;;20.05;12.65;;;6.40;99.90;;;;;;5049308;28;20032;-82
2023/12/18 06:53:35;;;;;;;19.88;11.25;;;6.40;99.90;;;;;;5051025;28;20020;-82
2023/12/18 06:56:01;;;;;;;20.85;11.68;;;6.40;99.90;;;;;;5047445;28;20025;-83
2023/12/18 06:58:26;;;;;;;19.75;11.55;;;6.50;99.90;;;;;;5029363;28;20029;-82
2023/12/18 07:00:52;;;;;;;25.58;13.73;;;6.50;99.90;;;;;;5061134;28;20029;-82
2023/12/18 07:03:18;;;;;;;24.77;13.88;;;6.50;99.90;;;;;;5046938;28;20458;-83
2023/12/18 07:05:45;;;;;;;20.90;11.85;;;6.50;99.90;;;;;;5049034;28;20032;-82
2023/12/18 07:08:10;;;;;;;22.42;11.60;;;6.50;99.90;;;;;;5030474;28;20052;-81
2023/12/18 07:10:36;;;;;;;20.55;12.27;;;6.50;99.90;;;;;;5047978;28;20121;-83
2023/12/18 07:13:02;;;;;;;19.63;11.45;;;6.50;99.90;;;;;;5029371;28;20086;-81
2023/12/18 07:15:27;;;;;;;23.33;13.27;;;6.50;99.90;;;;;;5045728;28;20013;-83
2023/12/18 07:17:53;;;;;;;21.67;11.60;;;6.50;99.90;;;;;;5030579;28;20436;-82
2023/12/18 07:20:19;;;;;;;19.42;11.15;;;6.50;99.90;;;;;;5036163;28;20059;-81
2023/12/18 07:22:45;;;;;;;23.65;12.73;;;6.50;99.90;;;;;;5047545;28;20504;-82
2023/12/18 07:25:11;;;;;;;19.50;11.80;;;6.50;99.90;;;;;;5029192;28;20026;-82
2023/12/18 07:27:37;;;;;;;18.77;11.38;;;6.50;99.90;;;;;;5043826;28;20051;-82
2023/12/18 07:30:03;;;;;;;18.25;10.55;;;6.50;99.90;;;;;;5047501;28;20128;-83
2023/12/18 07:32:33;;;;;;;21.70;13.10;;;6.50;99.90;;;;;;5064601;28;20150;-83
2023/12/18 07:35:00;;;;;;;23.15;13.18;;;6.50;99.90;;;;;;5049970;28;20021;-84
2023/12/18 07:37:28;;;;;;;21.05;12.88;;;6.50;99.90;;;;;;5042202;28;20119;-82
2023/12/18 07:39:55;;;;;;;19.48;11.55;;;6.50;99.90;;;;;;5066091;28;20488;-81
2023/12/18 07:42:21;;;;;;;21.17;11.50;;;6.50;99.90;;;;;;5062616;28;20036;-81
2023/12/18 07:44:46;;;;;;;19.38;11.95;;;6.50;99.90;;;;;;5061868;28;20022;-82
2023/12/18 07:47:12;;;;;;;19.70;10.80;;;6.50;99.90;;;;;;5078901;28;20025;-79
2023/12/18 07:49:38;;;;;;;25.80;13.40;;;6.60;99.90;;;;;;5049568;28;20025;-80
2023/12/18 07:52:04;;;;;;;18.45;11.77;;;6.50;99.90;;;;;;5046401;28;20033;-81
2023/12/18 07:54:29;;;;;;;21.35;11.93;;;6.60;99.90;;;;;;5047576;28;20021;-82
2023/12/18 07:56:55;;;;;;;20.23;12.32;;;6.60;99.90;;;;;;5062210;28;20028;-81
2023/12/18 07:59:20;;;;;;;18.70;11.18;;;6.60;99.90;;;;;;5079773;28;20040;-81
2023/12/18 08:01:46;;;;;;;19.60;11.77;;;6.60;99.90;;;;;;5044977;28;20025;-81
2023/12/18 08:04:13;;;;;;;18.65;10.57;;;6.60;99.90;;;;;;5036236;28;20090;-81
2023/12/18 08:06:39;;;;;;;15.60;9.13;;;6.60;99.90;;;;;;5044977;28;20028;-81
2023/12/18 08:09:05;;;;;;;22.27;12.00;;;6.60;99.90;;;;;;5047653;28;20052;-82
2023/12/18 08:11:30;;;;;;;20.42;13.38;;;6.60;99.90;;;;;;5048465;28;20477;-81
2023/12/18 08:13:56;;;;;;;23.65;14.07;;;6.70;99.90;;;;;;5048077;28;20024;-81
2023/12/18 08:16:25;;;;;;;25.38;14.23;;;6.60;99.90;;;;;;5048567;28;20668;-81
2023/12/18 08:18:50;;;;;;;23.33;13.40;;;6.70;99.90;;;;;;5032588;28;20111;-83
2023/12/18 08:21:16;;;;;;;18.10;10.98;;;6.70;99.90;;;;;;5045601;28;20463;-80
2023/12/18 08:23:43;;;;;;;16.40;10.25;;;6.70;99.90;;;;;;5075258;28;20052;-80
2023/12/18 08:26:12;;;;;;;28.40;16.05;;;6.70;99.90;;;;;;5043232;28;20499;-83
2023/12/18 08:28:41;;;;;;;23.20;12.70;;;6.70;99.90;;;;;;5046372;28;20033;-80
2023/12/18 08:31:07;;;;;;;22.30;14.57;;;6.70;99.90;;;;;;5045321;28;20047;-80
2023/12/18 08:33:33;;;;;;;22.25;12.07;;;6.70;99.90;;;;;;5047271;28;20103;-81
2023/12/18 08:35:58;;;;;;;20.20;12.38;;;6.80;99.90;;;;;;5029138;28;20483;-82
2023/12/18 08:38:24;;;;;;;21.85;13.48;;;6.80;99.90;;;;;;5047832;28;20120;-80
2023/12/18 08:40:50;;;;;;;24.70;12.48;;;6.70;99.90;;;;;;5056500;28;20032;-80
2023/12/18 08:43:15;;;;;;;23.55;13.32;;;6.80;99.90;;;;;;5043708;28;20070;-81
2023/12/18 08:45:42;;;;;;;21.27;10.90;;;6.80;99.90;;;;;;5045038;28;20033;-81
2023/12/18 08:48:08;;;;;;;18.65;10.35;;;6.80;99.90;;;;;;5046635;28;20025;-82
2023/12/18 08:50:33;;;;;;;20.80;11.68;;;6.90;99.90;;;;;;5045803;28;20119;-80
2023/12/18 08:52:59;;;;;;;29.27;15.60;;;6.90;99.90;;;;;;5029006;28;20036;-78
2023/12/18 08:55:25;;;;;;;30.55;16.70;;;6.90;99.90;;;;;;5042131;28;20474;-81
2023/12/18 08:57:51;;;;;;;29.00;15.68;;;6.90;99.90;;;;;;5025966;28;20043;-80
2023/12/18 09:00:17;;;;;;;24.35;13.35;;;6.90;99.90;;;;;;5047866;28;20389;-81
2023/12/18 09:02:42;;;;;;;22.38;12.55;;;6.90;99.90;;;;;;5043015;28;20500;-81
2023/12/18 09:05:09;;;;;;;21.73;13.02;;;6.90;99.90;;;;;;5046607;28;20029;-81
2023/12/18 09:07:34;;;;;;;25.15;12.70;;;6.90;99.90;;;;;;5060355;28;20074;-79
2023/12/18 09:10:00;;;;;;;21.55;13.35;;;6.90;99.90;;;;;;5045021;28;20033;-80
2023/12/18 09:12:26;;;;;;;29.10;15.32;;;6.90;99.90;;;;;;5048674;28;20029;-82
2023/12/18 09:14:51;;;;;;;22.55;13.60;;;6.90;99.90;;;;;;5062559;28;20025;-80
2023/12/18 09:17:17;;;;;;;18.65;11.48;;;6.80;99.90;;;;;;5048005;28;20065;-80
2023/12/18 09:19:43;;;;;;;22.27;11.73;;;6.90;99.90;;;;;;5051313;28;20477;-79
2023/12/18 09:22:09;;;;;;;21.30;12.65;;;6.90;99.90;;;;;;5067627;28;20110;-79
2023/12/18 09:24:34;;;;;;;19.05;10.82;;;6.90;99.90;;;;;;5030238;28;20109;-79
2023/12/18 09:27:00;;;;;;;21.75;12.35;;;7.10;99.90;;;;;;5050143;28;20449;-79
2023/12/18 09:29:26;;;;;;;26.35;16.52;;;7.10;99.90;;;;;;5068188;28;20254;-80
2023/12/18 09:31:52;;;;;;;29.10;15.98;;;7.00;99.90;;;;;;5049071;28;20447;-79
2023/12/18 09:34:17;;;;;;;24.02;14.70;;;7.00;99.90;;;;;;5039337;28;20075;-79
2023/12/18 09:36:44;;;;;;;27.15;14.38;;;7.00;99.90;;;;;;5067479;28;20028;-80
2023/12/18 09:39:10;;;;;;;29.98;16.52;;;7.00;99.90;;;;;;5063365;28;20086;-80
2023/12/18 09:41:36;;;;;;;31.15;17.38;;;6.90;99.90;;;;;;5049089;28;20448;-80
2023/12/18 09:44:02;;;;;;;29.73;16.85;;;6.90;99.90;;;;;;5044684;28;20108;-80
2023/12/18 09:46:27;;;;;;;29.45;16.77;;;6.90;99.90;;;;;;5046629;28;20450;-80
2023/12/18 09:48:54;;;;;;;26.45;15.68;;;6.90;99.90;;;;;;5051512;28;20021;-79
2023/12/18 09:51:24;;;;;;;22.38;14.45;;;6.90;99.90;;;;;;5046921;28;20056;-80
2023/12/18 09:53:50;;;;;;;;;;;6.90;99.90;;;;;;5045227;28;20032;-80
2023/12/18 09:56:23;;;;;;;25.30;14.57;;;6.90;99.90;;;;;;5046017;28;19979;-80
2023/12/18 09:58:52;;;;;;;22.88;13.73;;;6.90;99.90;;;;;;5029467;28;20067;-79
2023/12/18 10:01:18;;;;;;;29.07;16.50;;;6.90;99.90;;;;;;5049237;28;20082;-79
2023/12/18 10:03:44;;;;;;;26.08;16.55;;;7.00;99.90;;;;;;5043227;28;20029;-81
2023/12/18 10:06:10;;;;;;;26.75;15.55;;;7.10;99.90;;;;;;5043758;28;20033;-81
2023/12/18 10:08:36;;;;;;;25.58;16.42;;;7.10;99.90;;;;;;5047333;28;20037;-80
2023/12/18 10:11:03;;;;;;;35.20;19.13;;;7.20;99.90;;;;;;5081798;28;20024;-81
2023/12/18 10:13:29;;;;;;;31.25;17.02;;;7.20;99.90;;;;;;5047677;28;20036;-80
2023/12/18 10:15:54;;;;;;;33.17;19.10;;;7.20;99.90;;;;;;5080520;28;20029;-80
2023/12/18 10:18:24;;;;;;;29.88;18.05;;;7.20;99.90;;;;;;5080988;28;20036;-80
2023/12/18 10:20:50;;;;;;;35.92;19.92;;;7.30;99.90;;;;;;5081791;28;20029;-80
2023/12/18 10:23:17;;;;;;;31.48;18.20;;;7.30;99.90;;;;;;5047918;28;20013;-80
2023/12/18 10:25:43;;;;;;;31.60;16.02;;;7.40;99.90;;;;;;5047885;28;20056;-82
2023/12/18 10:28:09;;;;;;;28.00;16.60;;;7.40;99.90;;;;;;5081251;28;20064;-81
2023/12/18 10:30:35;;;;;;;30.35;17.33;;;7.40;99.90;;;;;;5080711;28;20065;-80
2023/12/18 10:33:05;;;;;;;28.15;16.23;;;7.40;99.90;;;;;;5062862;28;20028;-81
2023/12/18 10:35:35;;;;;;;23.83;13.65;;;7.40;99.90;;;;;;5081044;28;20377;-81
2023/12/18 10:38:02;;;;;;;25.73;13.50;;;7.40;99.90;;;;;;5080575;28;20481;-81
2023/12/18 10:40:28;;;;;;;24.95;14.10;;;7.40;99.90;;;;;;5081048;28;20036;-80
2023/12/18 10:43:17;;;;;;;21.23;13.25;;;7.50;99.90;;;;;;5046640;28;20583;-81
2023/12/18 10:45:43;;;;;;;25.98;14.77;;;7.60;99.90;;;;;;5080336;28;20029;-81
2023/12/18 10:48:11;;;;;;;27.48;14.65;;;7.60;99.90;;;;;;5048562;28;20401;-80
2023/12/18 10:50:38;;;;;;;22.80;14.32;;;7.60;99.90;;;;;;5063760;28;20109;-78
2023/12/18 10:53:05;;;;;;;24.60;13.85;;;7.60;99.90;;;;;;5064024;28;20029;-79
2023/12/18 10:55:33;;;;;;;28.42;15.63;;;7.60;99.90;;;;;;5080641;28;20107;-83
2023/12/18 10:58:01;;;;;;;28.05;14.55;;;7.70;99.90;;;;;;5048271;28;20393;-80
2023/12/18 11:00:28;;;;;;;31.52;15.80;;;7.70;99.90;;;;;;5053475;28;20399;-80
2023/12/18 11:02:55;;;;;;;23.05;15.15;;;7.70;99.90;;;;;;5062505;28;20036;-80
2023/12/18 11:05:23;;;;;;;23.17;14.32;;;7.70;99.90;;;;;;5079714;28;20020;-80
2023/12/18 11:07:50;;;;;;;22.67;14.15;;;7.80;99.90;;;;;;5062791;28;20037;-79
2023/12/18 11:10:17;;;;;;;27.77;16.60;;;7.70;99.90;;;;;;5047514;28;20890;-79
2023/12/18 11:12:43;;;;;;;25.42;14.48;;;7.70;99.90;;;;;;5048833;28;20459;-79
2023/12/18 11:15:37;;;;;;;23.00;13.43;;;7.80;99.90;;;;;;5047519;28;20021;-80
2023/12/18 11:18:17;;;;;;;23.85;14.25;;;7.80;99.90;;;;;;5062918;28;20040;-82
2023/12/18 11:20:43;;;;;;;23.85;12.88;;;7.80;99.90;;;;;;5048170;28;20017;-80
2023/12/18 11:23:11;;;;;;;19.77;11.50;;;7.90;99.90;;;;;;5080011;28;20182;-80
2023/12/18 11:25:43;;;;;;;21.00;12.13;;;8.00;99.90;;;;;;5080019;28;20029;-81
2023/12/18 11:28:09;;;;;;;24.42;14.10;;;8.00;99.90;;;;;;5048042;28;20082;-79
2023/12/18 11:30:44;;;;;;;23.75;14.23;;;7.90;99.90;;;;;;5079612;28;20053;-82
2023/12/18 11:33:13;;;;;;;22.80;13.07;;;8.00;99.90;;;;;;5062456;28;20029;-81
2023/12/18 11:35:48;;;;;;;22.58;13.52;;;8.10;99.90;;;;;;5080145;28;20111;-81
2023/12/18 11:38:17;;;;;;;22.13;13.73;;;8.10;99.90;;;;;;5046968;28;20071;-80
2023/12/18 11:40:44;;;;;;;20.20;13.35;;;8.00;99.90;;;;;;5045931;28;20330;-80
2023/12/18 11:43:37;;;;;;;24.60;14.25;;;7.90;99.90;;;;;;5045685;28;20460;-80
2023/12/18 11:46:08;;;;;;;20.05;12.68;;;7.90;99.90;;;;;;5061582;28;20052;-82
2023/12/18 11:48:35;;;;;;;19.00;10.93;;;7.90;99.90;;;;;;5045659;28;20029;-80
2023/12/18 11:51:02;;;;;;;24.42;13.77;;;7.90;99.90;;;;;;5062287;28;20037;-80
2023/12/18 11:53:34;;;;;;;23.80;13.30;;;7.90;99.90;;;;;;5046013;28;20048;-80
2023/12/18 11:56:07;;;;;;;27.23;13.60;;;7.80;99.90;;;;;;5045883;28;20531;-79
2023/12/18 11:58:34;;;;;;;19.30;12.15;;;7.70;99.90;;;;;;5040979;28;20055;-80
2023/12/18 12:00:59;;;;;;;30.60;18.40;;;7.70;99.90;;;;;;5078539;28;20068;-82
2023/12/18 12:03:25;;;;;;;24.08;14.80;;;7.60;99.90;;;;;;5061709;28;20121;-80
2023/12/18 12:05:52;;;;;;;24.27;15.30;;;7.70;99.90;;;;;;5062269;28;20175;-81
2023/12/18 12:08:18;;;;;;;23.50;15.02;;;7.70;99.90;;;;;;5061621;28;20037;-82
2023/12/18 12:10:45;;;;;;;28.42;15.70;;;7.80;99.90;;;;;;5078733;28;20032;-81
2023/12/18 12:13:27;;;;;;;27.00;14.13;;;7.80;99.90;;;;;;5045838;28;20533;-81
2023/12/18 12:15:57;;;;;;;18.75;12.00;;;7.80;99.90;;;;;;5077986;28;20025;-82
2023/12/18 12:18:28;;;;;;;26.15;14.68;;;7.80;99.90;;;;;;5021292;28;20041;-80
2023/12/18 12:20:54;;;;;;;23.58;13.50;;;7.80;99.90;;;;;;5047074;28;20025;-81
2023/12/18 12:23:20;;;;;;;22.95;14.23;;;7.70;99.90;;;;;;5046526;28;20465;-80
2023/12/18 12:25:47;;;;;;;23.67;13.00;;;7.70;99.90;;;;;;5061493;28;20499;-81
2023/12/18 12:28:16;;;;;;;21.77;13.43;;;7.80;99.90;;;;;;5061256;28;20040;-81
2023/12/18 12:30:43;;;;;;;23.27;15.02;;;7.80;99.90;;;;;;5076345;28;20049;-80
2023/12/18 12:33:09;;;;;;;21.33;12.50;;;7.80;99.90;;;;;;5061721;28;20071;-80
2023/12/18 12:35:35;;;;;;;24.77;13.52;;;7.90;99.90;;;;;;5077935;28;20021;-80
2023/12/18 12:38:02;;;;;;;27.08;13.27;;;7.90;99.90;;;;;;5077809;28;20059;-80
2023/12/18 12:40:42;;;;;;;23.50;14.43;;;7.90;99.90;;;;;;5044552;28;20031;-80